createdAt,value
2022-08-10T00:01:34.364Z,3.50
2022-08-10T00:04:02.234Z,3.03
2022-08-10T00:06:29.513Z,2.63
2022-08-10T00:08:56.621Z,2.90
2022-08-10T00:11:23.966Z,2.50
2022-08-10T00:13:51.472Z,3.40
2022-08-10T00:16:19.250Z,2.90
2022-08-10T00:18:46.334Z,3.23
2022-08-10T00:21:13.421Z,2.80
2022-08-10T00:23:40.446Z,3.00
2022-08-10T00:26:07.886Z,3.30
2022-08-10T00:28:34.983Z,2.73
2022-08-10T00:31:02.552Z,4.17
2022-08-10T00:33:29.534Z,3.47
2022-08-10T00:35:56.606Z,3.40
2022-08-10T00:38:24.047Z,2.73
2022-08-10T00:40:51.172Z,2.80
2022-08-10T00:43:23.411Z,2.80
2022-08-10T00:45:59.041Z,3.30
2022-08-10T00:48:28.939Z,3.03
2022-08-10T00:50:56.188Z,2.80
2022-08-10T00:53:23.169Z,2.73
2022-08-10T00:57:16.914Z,3.00
2022-08-10T00:58:40.475Z,3.97
2022-08-10T01:01:08.316Z,3.10
2022-08-10T01:04:57.814Z,3.20
2022-08-10T01:06:53.485Z,2.70
2022-08-10T01:09:27.397Z,2.60
2022-08-10T01:12:38.293Z,2.53
2022-08-10T01:15:22.513Z,2.73
2022-08-10T01:17:52.904Z,2.70
2022-08-10T01:20:42.486Z,3.30
2022-08-10T01:23:47.168Z,3.37
2022-08-10T01:26:40.568Z,3.63
2022-08-10T01:29:29.809Z,2.80
2022-08-10T01:32:04.797Z,3.70
2022-08-10T01:34:41.022Z,4.20
2022-08-10T01:37:13.635Z,2.70
2022-08-10T01:39:45.399Z,2.93
2022-08-10T01:42:16.851Z,3.40
2022-08-10T01:44:49.726Z,2.73
2022-08-10T01:47:36.988Z,3.30
2022-08-10T01:50:09.981Z,2.80
2022-08-10T01:52:40.414Z,3.17
2022-08-10T01:55:08.320Z,2.87
2022-08-10T01:57:37.680Z,2.77
2022-08-10T02:00:05.526Z,3.03
2022-08-10T02:02:35.291Z,3.73
2022-08-10T02:05:05.362Z,3.13
2022-08-10T02:07:34.284Z,3.53
2022-08-10T02:10:09.751Z,2.37
2022-08-10T02:12:37.765Z,3.90
2022-08-10T02:15:12.764Z,2.97
2022-08-10T02:17:58.416Z,3.07
2022-08-10T02:20:36.291Z,3.60
2022-08-10T02:23:08.738Z,3.37
2022-08-10T02:25:41.774Z,4.27
2022-08-10T02:28:30.575Z,3.30
2022-08-10T02:31:06.422Z,3.20
2022-08-10T02:33:37.258Z,4.47
2022-08-10T02:36:09.077Z,2.93
2022-08-10T02:38:59.359Z,4.13
2022-08-10T02:45:14.588Z,3.13
2022-08-10T02:45:26.305Z,3.20
2022-08-10T02:47:51.693Z,3.00
2022-08-10T02:50:22.931Z,3.00
2022-08-10T02:53:01.671Z,4.00
2022-08-10T02:55:32.349Z,3.03
2022-08-10T02:58:12.937Z,3.50
2022-08-10T03:00:49.800Z,3.37
2022-08-10T03:03:30.453Z,3.77
2022-08-10T03:06:09.403Z,4.57
2022-08-10T03:08:41.086Z,3.83
2022-08-10T03:11:13.951Z,3.23
2022-08-10T03:13:43.136Z,3.80
2022-08-10T03:16:10.639Z,4.07
2022-08-10T03:18:40.240Z,4.00
2022-08-10T03:21:11.811Z,4.27
2022-08-10T03:23:40.932Z,4.87
2022-08-10T03:26:08.943Z,4.63
2022-08-10T03:28:36.704Z,4.97
2022-08-10T03:31:04.538Z,3.90
2022-08-10T03:33:35.537Z,4.97
2022-08-10T03:36:40.341Z,4.40
2022-08-10T03:38:53.525Z,3.97
2022-08-10T03:41:30.659Z,5.13
2022-08-10T03:44:05.207Z,4.90
2022-08-10T03:46:35.628Z,6.00
2022-08-10T03:49:05.569Z,6.30
2022-08-10T03:51:34.364Z,5.67
2022-08-10T03:54:06.983Z,4.83
2022-08-10T03:56:39.961Z,5.17
2022-08-10T03:59:13.076Z,4.70
2022-08-10T04:02:41.633Z,6.17
2022-08-10T04:04:33.725Z,5.43
2022-08-10T04:07:03.484Z,4.63
2022-08-10T04:09:53.353Z,5.03
2022-08-10T04:12:21.128Z,5.23
2022-08-10T04:14:50.684Z,6.03
2022-08-10T04:18:03.006Z,5.60
2022-08-10T04:20:17.551Z,6.27
2022-08-10T04:22:49.953Z,5.37
2022-08-10T04:25:18.371Z,5.50
2022-08-10T04:27:46.288Z,4.43
2022-08-10T04:30:13.563Z,4.90
2022-08-10T04:32:41.830Z,5.13
2022-08-10T04:35:10.887Z,4.67
2022-08-10T04:37:43.285Z,4.67
2022-08-10T04:40:28.750Z,4.53
2022-08-10T04:43:02.345Z,4.40
2022-08-10T04:45:49.857Z,4.73
2022-08-10T04:48:40.278Z,4.80
2022-08-10T04:51:19.104Z,3.33
2022-08-10T04:54:06.124Z,3.80
2022-08-10T04:56:38.716Z,4.50
2022-08-10T04:59:07.209Z,4.53
2022-08-10T05:02:12.525Z,4.27
2022-08-10T05:04:38.413Z,4.20
2022-08-10T05:07:16.231Z,3.60
2022-08-10T05:10:02.358Z,4.50
2022-08-10T05:12:39.404Z,4.57
2022-08-10T05:15:12.243Z,6.40
2022-08-10T05:17:40.628Z,5.30
2022-08-10T05:20:09.971Z,4.50
2022-08-10T05:22:42.255Z,3.90
2022-08-10T05:25:20.136Z,5.07
2022-08-10T05:27:47.867Z,4.67
2022-08-10T05:30:20.650Z,4.90
2022-08-10T05:32:58.452Z,4.57
2022-08-10T05:35:28.090Z,4.03
2022-08-10T05:38:12.055Z,4.27
2022-08-10T05:40:47.320Z,4.27
2022-08-10T05:43:20.284Z,5.07
2022-08-10T05:46:18.718Z,5.63
2022-08-10T05:48:55.464Z,4.80
2022-08-10T05:51:26.397Z,6.70
2022-08-10T05:54:01.258Z,5.70
2022-08-10T05:56:54.799Z,5.03
2022-08-10T06:00:10.758Z,5.13
2022-08-10T06:02:32.109Z,4.80
2022-08-10T06:05:08.358Z,4.00
2022-08-10T06:07:40.184Z,18.07
2022-08-10T06:10:11.299Z,16.30
2022-08-10T06:12:54.074Z,5.60
2022-08-10T06:15:50.508Z,3.90
2022-08-10T06:18:16.430Z,3.97
2022-08-10T06:20:44.026Z,7.77
2022-08-10T06:23:12.038Z,4.23
2022-08-10T06:26:10.956Z,5.43
2022-08-10T06:28:31.149Z,4.90
2022-08-10T06:31:00.293Z,5.10
2022-08-10T06:33:31.752Z,8.33
2022-08-10T06:36:00.530Z,4.23
2022-08-10T06:38:30.696Z,4.33
2022-08-10T06:41:01.912Z,4.40
2022-08-10T06:43:30.869Z,5.50
2022-08-10T06:46:07.997Z,4.70
2022-08-10T06:48:51.742Z,4.10
2022-08-10T06:51:29.546Z,4.60
2022-08-10T06:54:00.310Z,3.93
2022-08-10T06:56:35.980Z,4.70
2022-08-10T06:59:27.836Z,3.60
2022-08-10T07:02:21.558Z,2.97
2022-08-10T07:04:52.246Z,3.57
2022-08-10T07:07:22.720Z,3.27
2022-08-10T07:09:51.253Z,4.73
2022-08-10T07:12:20.915Z,3.70
2022-08-10T07:14:51.328Z,3.27
2022-08-10T07:17:24.706Z,3.07
2022-08-10T07:19:56.925Z,4.40
2022-08-10T07:23:02.553Z,3.80
2022-08-10T07:25:25.283Z,4.40
2022-08-10T07:27:58.879Z,4.57
2022-08-10T07:30:31.751Z,3.93
2022-08-10T07:33:01.322Z,4.50
2022-08-10T07:35:36.403Z,4.13
2022-08-10T07:38:13.903Z,4.40
2022-08-10T07:40:42.319Z,5.63
2022-08-10T07:43:11.026Z,4.20
2022-08-10T07:45:39.036Z,4.00
2022-08-10T07:48:15.311Z,4.47
2022-08-10T07:50:43.644Z,4.53
2022-08-10T07:53:16.831Z,4.00
2022-08-10T07:56:03.629Z,4.60
2022-08-10T07:58:51.820Z,4.00
2022-08-10T08:01:24.531Z,4.00
2022-08-10T08:04:06.037Z,3.20
2022-08-10T08:06:42.069Z,4.90
2022-08-10T08:09:11.029Z,3.73
2022-08-10T08:11:43.759Z,3.50
2022-08-10T08:14:11.926Z,3.97
2022-08-10T08:16:44.073Z,4.03
2022-08-10T08:19:28.523Z,3.77
2022-08-10T08:24:10.494Z,3.53
2022-08-10T08:24:48.140Z,3.57
2022-08-10T08:27:20.387Z,3.63
2022-08-10T08:29:49.823Z,4.20
2022-08-10T08:32:26.099Z,3.50
2022-08-10T08:34:59.441Z,3.50
2022-08-10T08:38:32.639Z,4.30
2022-08-10T08:40:29.226Z,3.27
2022-08-10T08:43:10.998Z,3.40
2022-08-10T08:46:09.034Z,3.10
2022-08-10T08:48:48.108Z,2.63
2022-08-10T08:52:09.832Z,2.80
2022-08-10T08:54:59.481Z,2.63
2022-08-10T08:57:49.800Z,2.73
2022-08-10T09:00:51.490Z,2.83
2022-08-10T09:03:30.802Z,2.00
2022-08-10T09:06:17.242Z,2.60
2022-08-10T09:09:16.544Z,3.70
2022-08-10T09:12:06.205Z,3.50
2022-08-10T09:14:57.892Z,2.83
2022-08-10T09:17:31.440Z,2.60
2022-08-10T09:20:17.244Z,2.33
2022-08-10T09:23:03.523Z,2.30
2022-08-10T09:25:36.652Z,2.37
2022-08-10T09:28:05.578Z,1.93
2022-08-10T09:31:18.660Z,2.50
2022-08-10T09:36:22.291Z,2.43
2022-08-10T09:37:08.662Z,1.87
2022-08-10T09:40:48.472Z,1.70
2022-08-10T09:43:26.050Z,1.43
2022-08-10T09:46:15.646Z,1.97
2022-08-10T09:48:57.168Z,2.00
2022-08-10T09:51:46.007Z,2.00
2022-08-10T09:54:38.445Z,2.63
2022-08-10T09:57:46.341Z,2.00
2022-08-10T10:00:21.693Z,2.23
2022-08-10T10:02:57.397Z,3.03
2022-08-10T10:05:51.092Z,2.67
2022-08-10T10:08:25.189Z,2.00
2022-08-10T10:11:04.154Z,1.93
2022-08-10T10:14:02.474Z,3.90
2022-08-10T10:16:44.236Z,1.90
2022-08-10T10:19:45.898Z,2.93
2022-08-10T10:22:33.851Z,2.93
2022-08-10T10:25:51.000Z,2.80
2022-08-10T10:28:51.343Z,2.30
2022-08-10T10:31:33.458Z,2.43
2022-08-10T10:34:05.159Z,2.03
2022-08-10T10:36:34.408Z,2.83
2022-08-10T10:39:02.815Z,1.90
2022-08-10T10:42:04.607Z,1.70
2022-08-10T10:45:09.863Z,2.43
2022-08-10T10:47:58.196Z,2.40
2022-08-10T10:50:43.986Z,2.27
2022-08-10T10:53:19.118Z,2.73
2022-08-10T10:56:14.690Z,2.20
2022-08-10T10:58:42.908Z,1.97
2022-08-10T11:01:22.418Z,2.17
2022-08-10T11:03:55.356Z,2.67
2022-08-10T11:06:39.764Z,2.67
2022-08-10T11:10:05.983Z,1.77
2022-08-10T11:12:26.189Z,3.73
2022-08-10T11:15:06.588Z,2.80
2022-08-10T11:17:35.655Z,2.73
2022-08-10T11:20:24.563Z,2.37
2022-08-10T11:23:28.566Z,1.87
2022-08-10T11:26:07.545Z,2.67
2022-08-10T11:28:40.878Z,2.33
2022-08-10T11:31:44.823Z,1.80
2022-08-10T11:34:47.829Z,2.60
2022-08-10T11:37:32.921Z,2.70
2022-08-10T11:40:29.904Z,2.60
2022-08-10T11:43:14.522Z,2.53
2022-08-10T11:46:08.002Z,2.80
2022-08-10T11:49:00.843Z,2.33
2022-08-10T11:51:45.163Z,2.20
2022-08-10T11:54:22.176Z,2.17
2022-08-10T11:56:53.019Z,1.93
2022-08-10T11:59:42.101Z,2.07
2022-08-10T12:02:13.257Z,1.50
2022-08-10T12:04:44.634Z,1.70
2022-08-10T12:10:01.988Z,1.97
2022-08-10T12:10:07.178Z,1.57
2022-08-10T12:12:50.665Z,1.60
2022-08-10T12:15:27.721Z,1.30
2022-08-10T12:17:59.342Z,1.40
2022-08-10T12:20:34.601Z,1.40
2022-08-10T12:23:30.366Z,1.60
2022-08-10T12:26:13.803Z,1.63
2022-08-10T12:29:03.774Z,1.40
2022-08-10T12:31:40.893Z,1.40
2022-08-10T12:34:39.803Z,1.73
2022-08-10T12:37:19.079Z,1.13
2022-08-10T12:40:33.808Z,1.40
2022-08-10T12:44:03.991Z,1.87
2022-08-10T12:46:19.827Z,1.27
2022-08-10T12:49:13.122Z,1.57
2022-08-10T12:51:53.531Z,1.30
2022-08-10T12:54:31.893Z,1.80
2022-08-10T12:57:04.681Z,1.80
2022-08-10T12:59:33.697Z,2.13
2022-08-10T13:02:14.847Z,2.10
2022-08-10T13:04:43.584Z,1.90
2022-08-10T13:08:04.075Z,2.50
2022-08-10T13:10:07.975Z,2.00
2022-08-10T13:12:40.949Z,2.20
2022-08-10T13:15:48.562Z,2.40
2022-08-10T13:18:19.630Z,3.13
2022-08-10T13:20:52.515Z,2.00
2022-08-10T13:23:25.021Z,3.07
2022-08-10T13:25:54.988Z,2.47
2022-08-10T13:28:35.454Z,2.33
2022-08-10T13:31:07.290Z,2.50
2022-08-10T13:34:36.605Z,2.40
2022-08-10T13:36:31.387Z,2.03
2022-08-10T13:38:59.997Z,2.00
2022-08-10T13:41:30.684Z,1.83
2022-08-10T13:43:59.976Z,1.93
2022-08-10T13:46:27.888Z,2.13
2022-08-10T13:48:58.049Z,1.83
2022-08-10T13:51:56.494Z,2.43
2022-08-10T13:54:18.052Z,2.00
2022-08-10T13:56:47.740Z,1.60
2022-08-10T13:59:16.501Z,1.47
2022-08-10T14:01:50.428Z,1.40
2022-08-10T14:04:19.752Z,2.37
2022-08-10T14:07:00.542Z,1.83
2022-08-10T14:09:32.337Z,1.60
2022-08-10T14:12:01.287Z,1.83
2022-08-10T14:14:31.320Z,2.00
2022-08-10T14:16:59.257Z,2.27
2022-08-10T14:19:36.593Z,1.53
2022-08-10T14:22:06.475Z,1.97
2022-08-10T14:24:33.897Z,1.70
2022-08-10T14:27:10.151Z,1.80
2022-08-10T14:29:43.673Z,1.90
2022-08-10T14:32:12.873Z,1.43
2022-08-10T14:36:16.885Z,1.53
2022-08-10T14:37:38.321Z,1.40
2022-08-10T14:40:28.699Z,1.47
2022-08-10T14:43:28.213Z,1.33
2022-08-10T14:46:01.391Z,1.23
2022-08-10T14:48:33.976Z,1.50
2022-08-10T14:51:02.972Z,1.50
2022-08-10T14:53:34.758Z,1.43
2022-08-10T14:56:09.169Z,1.80
2022-08-10T14:58:38.907Z,2.60
2022-08-10T15:01:26.182Z,1.60
2022-08-10T15:04:17.043Z,3.23
2022-08-10T15:06:57.571Z,1.90
2022-08-10T15:09:28.155Z,2.53
2022-08-10T15:12:14.225Z,1.80
2022-08-10T15:14:46.877Z,1.90
2022-08-10T15:17:37.419Z,2.20
2022-08-10T15:20:20.950Z,2.10
2022-08-10T15:22:54.722Z,2.40
2022-08-10T15:25:26.072Z,2.23
2022-08-10T15:28:06.351Z,1.90
2022-08-10T15:30:43.001Z,1.90
2022-08-10T15:34:03.012Z,2.30
2022-08-10T15:37:36.856Z,1.87
2022-08-10T15:40:21.227Z,2.50
2022-08-10T15:42:41.727Z,2.40
2022-08-10T15:45:19.756Z,2.17
2022-08-10T15:48:03.729Z,1.80
2022-08-10T15:50:43.909Z,1.93
2022-08-10T15:53:16.049Z,2.60
2022-08-10T15:55:53.541Z,1.53
2022-08-10T15:58:42.435Z,1.73
2022-08-10T16:02:14.908Z,1.60
2022-08-10T16:04:08.445Z,2.30
2022-08-10T16:06:42.795Z,1.67
2022-08-10T16:10:24.640Z,1.50
2022-08-10T16:12:32.533Z,1.60
2022-08-10T16:15:07.941Z,1.73
2022-08-10T16:17:54.222Z,1.67
2022-08-10T16:20:31.551Z,1.20
2022-08-10T16:23:03.057Z,1.40
2022-08-10T16:25:44.586Z,1.60
2022-08-10T16:28:23.201Z,1.60
2022-08-10T16:30:55.851Z,1.97
2022-08-10T16:33:53.454Z,1.67
2022-08-10T16:36:18.847Z,1.50
2022-08-10T16:38:49.366Z,1.90
2022-08-10T16:42:00.193Z,2.07
2022-08-10T16:44:10.309Z,1.53
2022-08-10T16:46:43.804Z,2.00
2022-08-10T16:49:15.794Z,1.50
2022-08-10T16:51:47.794Z,1.80
2022-08-10T16:54:22.417Z,1.30
2022-08-10T16:56:53.852Z,1.40
2022-08-10T16:59:24.510Z,1.47
2022-08-10T17:01:54.198Z,1.97
2022-08-10T17:04:23.678Z,1.30
2022-08-10T17:06:59.767Z,1.40
2022-08-10T17:09:29.994Z,1.47
2022-08-10T17:11:59.317Z,2.47
2022-08-10T17:14:28.920Z,1.80
2022-08-10T17:17:08.186Z,1.77
2022-08-10T17:19:45.080Z,1.37
2022-08-10T17:22:23.066Z,1.77
2022-08-10T17:25:08.205Z,1.93
2022-08-10T17:28:05.486Z,2.37
2022-08-10T17:30:35.175Z,3.57
2022-08-10T17:33:15.625Z,1.60
2022-08-10T17:35:47.110Z,1.77
2022-08-10T17:38:20.968Z,2.37
2022-08-10T17:41:12.343Z,1.77
2022-08-10T17:43:46.305Z,1.83
2022-08-10T17:46:38.512Z,1.63
2022-08-10T17:49:08.404Z,2.27
2022-08-10T17:51:40.464Z,2.00
2022-08-10T17:54:46.410Z,2.23
2022-08-10T17:57:21.439Z,2.07
2022-08-10T17:59:51.565Z,1.87
2022-08-10T18:02:27.295Z,2.13
2022-08-10T18:04:58.295Z,2.10
2022-08-10T18:07:35.490Z,2.13
2022-08-10T18:10:05.087Z,3.10
2022-08-10T18:12:50.606Z,4.50
2022-08-10T18:15:27.607Z,2.47
2022-08-10T18:18:02.566Z,2.10
2022-08-10T18:20:36.413Z,2.33
2022-08-10T18:23:05.029Z,3.07
2022-08-10T18:25:35.728Z,3.77
2022-08-10T18:28:05.987Z,2.83
2022-08-10T18:30:46.086Z,2.60
2022-08-10T18:33:15.002Z,3.47
2022-08-10T18:35:44.770Z,2.90
2022-08-10T18:38:14.565Z,2.47
2022-08-10T18:40:50.157Z,2.77
2022-08-10T18:44:10.815Z,3.03
2022-08-10T18:46:14.421Z,3.70
2022-08-10T18:49:14.395Z,3.60
2022-08-10T18:51:46.289Z,2.63
2022-08-10T18:54:31.339Z,2.20
2022-08-10T18:57:36.209Z,3.10
2022-08-10T19:00:12.234Z,3.37
2022-08-10T19:02:57.259Z,3.60
2022-08-10T19:05:56.273Z,3.30
2022-08-10T19:08:59.882Z,3.50
2022-08-10T19:12:01.125Z,4.50
2022-08-10T19:14:37.378Z,3.87
2022-08-10T19:17:25.457Z,2.77
2022-08-10T19:20:25.769Z,3.63
2022-08-10T19:23:25.886Z,3.60
2022-08-10T19:26:42.071Z,3.20
2022-08-10T19:29:07.957Z,3.30
2022-08-10T19:32:08.434Z,2.77
2022-08-10T19:34:53.403Z,7.83
2022-08-10T19:37:44.270Z,4.00
2022-08-10T19:40:44.054Z,3.13
2022-08-10T19:44:00.734Z,2.70
2022-08-10T19:46:47.339Z,4.17
2022-08-10T19:49:39.770Z,3.80
2022-08-10T19:52:25.820Z,6.10
2022-08-10T19:55:05.456Z,3.53
2022-08-10T19:57:59.945Z,4.37
2022-08-10T20:00:49.498Z,5.00
2022-08-10T20:03:16.509Z,4.03
2022-08-10T20:06:13.102Z,3.90
2022-08-10T20:08:57.445Z,3.10
2022-08-10T20:11:44.195Z,3.30
2022-08-10T20:14:29.378Z,2.80
2022-08-10T20:17:03.994Z,2.37
2022-08-10T20:19:52.587Z,3.03
2022-08-10T20:22:30.418Z,3.77
2022-08-10T20:25:16.612Z,3.00
2022-08-10T20:27:59.188Z,3.20
2022-08-10T20:30:33.611Z,3.20
2022-08-10T20:33:16.779Z,5.50
2022-08-10T20:35:43.919Z,2.90
2022-08-10T20:38:15.913Z,3.43
2022-08-10T20:40:49.412Z,3.17
2022-08-10T20:43:39.061Z,3.90
2022-08-10T20:46:13.795Z,4.07
2022-08-10T20:48:48.889Z,4.30
2022-08-10T20:51:21.839Z,4.50
2022-08-10T20:53:56.356Z,3.50
2022-08-10T20:56:45.167Z,6.13
2022-08-10T21:00:04.290Z,4.20
2022-08-10T21:02:35.257Z,3.80
2022-08-10T21:05:22.343Z,5.03
2022-08-10T21:08:23.593Z,4.30
2022-08-10T21:11:02.317Z,4.23
2022-08-10T21:13:54.352Z,4.27
2022-08-10T21:16:32.205Z,4.73
2022-08-10T21:19:12.663Z,4.23
2022-08-10T21:22:08.238Z,4.17
2022-08-10T21:24:46.145Z,5.07
2022-08-10T21:27:27.204Z,4.43
2022-08-10T21:30:12.189Z,4.97
2022-08-10T21:32:54.408Z,4.67
2022-08-10T21:35:38.346Z,4.73
2022-08-10T21:38:30.009Z,3.97
2022-08-10T21:41:57.529Z,4.47
2022-08-10T21:45:09.226Z,4.53
2022-08-10T21:48:19.805Z,4.40
2022-08-10T21:51:24.247Z,6.70
2022-08-10T21:54:25.913Z,3.70
2022-08-10T21:57:22.581Z,5.17
2022-08-10T22:00:29.652Z,4.07
2022-08-10T22:03:18.632Z,5.27
2022-08-10T22:06:10.920Z,5.20
2022-08-10T22:09:03.467Z,4.70
2022-08-10T22:11:57.414Z,4.57
2022-08-10T22:14:52.514Z,4.07
2022-08-10T22:18:00.940Z,3.83
2022-08-10T22:20:50.116Z,4.47
2022-08-10T22:24:06.663Z,4.90
2022-08-10T22:27:05.279Z,6.23
2022-08-10T22:29:59.811Z,4.80
2022-08-10T22:33:08.112Z,5.27
2022-08-10T22:36:18.802Z,4.80
2022-08-10T22:40:10.216Z,4.27
2022-08-10T22:42:59.472Z,3.83
2022-08-10T22:45:55.152Z,4.93
2022-08-10T22:48:40.624Z,4.40
2022-08-10T22:51:17.098Z,4.47
2022-08-10T22:54:06.742Z,3.97
2022-08-10T22:56:59.404Z,4.60
2022-08-10T22:59:32.351Z,5.23
2022-08-10T23:02:15.893Z,4.70
2022-08-10T23:04:55.687Z,5.70
2022-08-10T23:07:32.002Z,4.40
2022-08-10T23:10:05.690Z,4.37
2022-08-10T23:12:41.633Z,5.80
2022-08-10T23:15:37.709Z,5.00
2022-08-10T23:18:26.593Z,5.63
2022-08-10T23:20:56.844Z,5.93
2022-08-10T23:23:25.925Z,7.03
2022-08-10T23:25:57.182Z,8.90
2022-08-10T23:28:39.045Z,8.60
2022-08-10T23:32:00.640Z,7.90
2022-08-10T23:34:06.453Z,7.83
2022-08-10T23:36:37.519Z,7.37
2022-08-10T23:39:25.448Z,7.97
2022-08-10T23:42:07.027Z,7.30
2022-08-10T23:44:47.939Z,6.20
2022-08-10T23:47:21.746Z,6.47
2022-08-10T23:49:51.814Z,5.30
2022-08-10T23:52:27.693Z,5.40
2022-08-10T23:54:58.092Z,5.00
2022-08-10T23:57:28.015Z,3.97
